createdAt,value
2022-11-01T00:01:32.947Z,9.60
2022-11-01T00:03:59.758Z,9.40
2022-11-01T00:06:26.499Z,9.40
2022-11-01T00:08:53.158Z,9.40
2022-11-01T00:11:20.197Z,9.40
2022-11-01T00:13:48.672Z,9.30
2022-11-01T00:16:16.882Z,9.20
2022-11-01T00:18:43.676Z,9.20
2022-11-01T00:21:11.516Z,9.00
2022-11-01T00:23:39.599Z,8.90
2022-11-01T00:26:06.912Z,9.00
2022-11-01T00:28:33.859Z,9.10
2022-11-01T00:31:01.359Z,9.30
2022-11-01T00:33:28.076Z,9.40
2022-11-01T00:35:59.326Z,9.50
2022-11-01T00:38:26.009Z,9.50
2022-11-01T00:40:52.700Z,9.50
2022-11-01T00:45:51.373Z,9.60
2022-11-01T00:48:18.093Z,9.50
2022-11-01T00:50:44.963Z,9.50
2022-11-01T00:53:13.069Z,9.40
2022-11-01T00:55:40.544Z,9.10
2022-11-01T00:58:08.036Z,8.90
2022-11-01T01:00:34.972Z,8.60
2022-11-01T01:03:02.254Z,8.50
2022-11-01T01:05:29.079Z,8.30
2022-11-01T01:07:56.026Z,8.30
2022-11-01T01:10:23.067Z,8.20
2022-11-01T01:12:49.750Z,8.20
2022-11-01T01:15:16.523Z,8.30
2022-11-01T01:17:43.214Z,8.30
2022-11-01T01:20:10.331Z,8.20
2022-11-01T01:22:37.134Z,8.10
2022-11-01T01:25:04.325Z,8.10
2022-11-01T01:27:31.021Z,8.00
2022-11-01T01:29:57.682Z,7.90
2022-11-01T01:32:24.887Z,7.90
2022-11-01T01:34:51.644Z,7.80
2022-11-01T01:37:18.496Z,7.70
2022-11-01T01:39:45.205Z,7.70
2022-11-01T01:42:38.237Z,7.70
2022-11-01T01:45:05.022Z,7.80
2022-11-01T01:47:34.404Z,7.80
2022-11-01T01:50:04.141Z,7.90
2022-11-01T01:52:33.191Z,7.90
2022-11-01T01:55:05.918Z,7.90
2022-11-01T01:57:33.428Z,7.90
2022-11-01T02:00:00.287Z,7.80
2022-11-01T02:02:27.286Z,7.80
2022-11-01T02:05:20.394Z,7.80
2022-11-01T02:07:47.530Z,7.80
2022-11-01T02:10:15.592Z,7.90
2022-11-01T02:12:48.031Z,8.10
2022-11-01T02:15:17.147Z,8.30
2022-11-01T02:18:00.815Z,8.40
2022-11-01T02:20:40.908Z,8.50
2022-11-01T02:23:10.418Z,8.50
2022-11-01T02:26:11.921Z,8.50
2022-11-01T02:28:53.832Z,8.50
2022-11-01T02:31:40.595Z,8.50
2022-11-01T02:34:26.103Z,8.40
2022-11-01T02:37:16.730Z,8.50
2022-11-01T02:39:53.455Z,8.40
2022-11-01T02:42:28.949Z,8.30
2022-11-01T02:45:04.163Z,8.10
2022-11-01T02:47:32.727Z,8.00
2022-11-01T02:50:03.951Z,7.90
2022-11-01T02:52:32.947Z,7.80
2022-11-01T02:55:03.131Z,7.70
2022-11-01T02:57:42.335Z,7.70
2022-11-01T03:00:25.098Z,7.70
2022-11-01T03:03:09.848Z,7.60
2022-11-01T03:05:49.330Z,7.60
2022-11-01T03:08:20.143Z,7.60
2022-11-01T03:10:52.431Z,7.70
2022-11-01T03:13:34.676Z,7.60
2022-11-01T03:16:29.607Z,7.60
2022-11-01T03:19:23.978Z,7.40
2022-11-01T03:22:09.679Z,7.40
2022-11-01T03:25:03.963Z,7.30
2022-11-01T03:27:41.571Z,7.30
2022-11-01T03:30:10.776Z,7.20
2022-11-01T03:32:52.072Z,7.20
2022-11-01T03:35:26.000Z,7.20
2022-11-01T03:37:58.639Z,7.20
2022-11-01T03:40:27.620Z,7.30
2022-11-01T03:43:21.067Z,7.50
2022-11-01T03:45:54.600Z,7.80
2022-11-01T03:48:21.507Z,7.90
2022-11-01T03:50:52.496Z,8.10
2022-11-01T03:53:19.771Z,8.10
2022-11-01T03:55:46.510Z,8.10
2022-11-01T03:58:13.497Z,8.10
2022-11-01T04:00:42.710Z,8.10
2022-11-01T04:03:10.869Z,8.10
2022-11-01T04:05:39.678Z,7.80
2022-11-01T04:08:07.636Z,7.60
2022-11-01T04:10:34.466Z,7.30
2022-11-01T04:13:01.564Z,7.20
2022-11-01T04:15:47.024Z,7.10
2022-11-01T04:18:36.801Z,7.10
2022-11-01T04:21:16.238Z,7.00
2022-11-01T04:23:44.178Z,7.00
2022-11-01T04:26:14.140Z,7.00
2022-11-01T04:28:40.879Z,7.10
2022-11-01T04:31:08.142Z,7.10
2022-11-01T04:33:34.828Z,7.20
2022-11-01T04:36:06.028Z,7.20
2022-11-01T04:38:32.768Z,7.20
2022-11-01T04:40:59.464Z,7.20
2022-11-01T04:43:26.154Z,7.30
2022-11-01T04:45:56.867Z,7.30
2022-11-01T04:48:24.463Z,7.30
2022-11-01T04:50:51.127Z,7.20
2022-11-01T04:53:18.114Z,7.10
2022-11-01T04:55:45.026Z,7.10
2022-11-01T04:58:11.877Z,7.10
2022-11-01T05:00:38.800Z,7.00
2022-11-01T05:03:07.564Z,7.10
2022-11-01T05:05:35.634Z,7.20
2022-11-01T05:08:03.952Z,7.30
2022-11-01T05:10:31.349Z,7.40
2022-11-01T05:12:58.012Z,7.40
2022-11-01T05:15:24.782Z,7.40
2022-11-01T05:17:51.531Z,7.30
2022-11-01T05:20:18.744Z,7.20
2022-11-01T05:22:45.483Z,7.20
2022-11-01T05:25:12.184Z,7.20
2022-11-01T05:27:39.124Z,7.10
2022-11-01T05:30:06.842Z,7.10
2022-11-01T05:32:35.585Z,7.10
2022-11-01T05:35:02.587Z,7.10
2022-11-01T05:37:29.266Z,7.00
2022-11-01T05:39:56.057Z,7.10
2022-11-01T05:42:22.782Z,7.10
2022-11-01T05:44:49.461Z,7.10
2022-11-01T05:47:17.508Z,7.10
2022-11-01T05:49:44.539Z,7.10
2022-11-01T05:52:11.282Z,7.10
2022-11-01T05:54:37.958Z,7.20
2022-11-01T05:57:06.230Z,7.30
2022-11-01T05:59:32.901Z,7.40
2022-11-01T06:01:59.730Z,7.50
2022-11-01T06:04:26.530Z,7.60
2022-11-01T06:06:53.228Z,7.60
2022-11-01T06:09:19.902Z,7.60
2022-11-01T06:11:46.588Z,7.40
2022-11-01T06:14:13.367Z,7.40
2022-11-01T06:16:40.155Z,7.30
2022-11-01T06:19:06.847Z,7.20
2022-11-01T06:21:33.545Z,7.10
2022-11-01T06:24:00.214Z,7.00
2022-11-01T06:26:26.913Z,7.10
2022-11-01T06:28:53.600Z,7.20
2022-11-01T06:31:20.284Z,7.20
2022-11-01T06:33:50.250Z,7.30
2022-11-01T06:36:16.922Z,7.40
2022-11-01T06:38:43.612Z,7.50
2022-11-01T06:41:10.303Z,7.50
2022-11-01T06:43:37.020Z,7.40
2022-11-01T06:46:03.868Z,7.40
2022-11-01T06:48:30.541Z,7.30
2022-11-01T06:50:57.373Z,7.40
2022-11-01T06:53:24.907Z,7.40
2022-11-01T06:55:52.297Z,7.50
2022-11-01T06:58:19.007Z,7.60
2022-11-01T07:00:45.812Z,7.70
2022-11-01T07:03:14.303Z,7.80
2022-11-01T07:05:41.722Z,7.80
2022-11-01T07:08:09.738Z,7.80
2022-11-01T07:10:38.083Z,7.70
2022-11-01T07:13:06.453Z,7.60
2022-11-01T07:15:33.529Z,7.50
2022-11-01T07:18:04.336Z,7.50
2022-11-01T07:20:36.314Z,7.50
2022-11-01T07:23:05.569Z,7.50
2022-11-01T07:25:33.359Z,7.60
2022-11-01T07:28:00.191Z,7.70
2022-11-01T07:30:27.924Z,7.90
2022-11-01T07:32:56.858Z,8.00
2022-11-01T07:35:24.609Z,8.10
2022-11-01T07:37:51.399Z,8.10
2022-11-01T07:40:18.682Z,8.30
2022-11-01T07:42:46.024Z,8.30
2022-11-01T07:45:14.123Z,8.30
2022-11-01T07:47:40.802Z,8.50
2022-11-01T07:50:07.775Z,8.60
2022-11-01T07:52:34.513Z,8.70
2022-11-01T07:55:01.230Z,8.70
2022-11-01T07:57:27.916Z,8.80
2022-11-01T07:59:54.623Z,9.00
2022-11-01T08:02:21.506Z,9.10
2022-11-01T08:04:48.252Z,9.20
2022-11-01T08:07:14.953Z,9.30
2022-11-01T08:09:44.030Z,9.50
2022-11-01T08:12:10.720Z,9.50
2022-11-01T08:14:37.478Z,9.60
2022-11-01T08:17:04.161Z,9.70
2022-11-01T08:19:30.828Z,9.80
2022-11-01T08:21:58.892Z,10.00
2022-11-01T08:24:26.348Z,10.00
2022-11-01T08:26:54.049Z,10.00
2022-11-01T08:29:20.985Z,9.90
2022-11-01T08:31:49.110Z,10.00
2022-11-01T08:34:16.894Z,10.10
2022-11-01T08:36:44.037Z,10.30
2022-11-01T08:39:10.986Z,10.50
2022-11-01T08:41:37.863Z,10.60
2022-11-01T08:44:04.713Z,10.80
2022-11-01T08:46:31.569Z,10.80
2022-11-01T08:49:00.383Z,10.90
2022-11-01T08:51:27.731Z,10.90
2022-11-01T08:53:57.566Z,10.90
2022-11-01T08:56:28.382Z,11.00
2022-11-01T08:58:55.519Z,11.10
2022-11-01T09:01:29.747Z,11.10
2022-11-01T09:04:01.183Z,11.20
2022-11-01T09:06:33.700Z,11.30
2022-11-01T09:09:03.741Z,11.60
2022-11-01T09:11:30.991Z,11.70
2022-11-01T09:14:01.203Z,12.00
2022-11-01T09:16:28.101Z,12.10
2022-11-01T09:18:55.195Z,12.30
2022-11-01T09:21:21.883Z,12.50
2022-11-01T09:23:48.628Z,12.80
2022-11-01T09:26:15.332Z,12.90
2022-11-01T09:28:42.072Z,13.10
2022-11-01T09:31:26.111Z,13.20
2022-11-01T09:33:59.392Z,13.30
2022-11-01T09:36:27.936Z,13.30
2022-11-01T09:38:55.816Z,13.40
2022-11-01T09:41:42.613Z,13.40
2022-11-01T09:47:50.977Z,13.60
2022-11-01T09:50:26.736Z,13.80
2022-11-01T09:52:55.580Z,14.00
2022-11-01T09:55:33.527Z,14.10
2022-11-01T09:58:06.769Z,14.30
2022-11-01T10:00:36.562Z,14.40
2022-11-01T10:03:25.544Z,14.40
2022-11-01T10:06:15.392Z,14.30
2022-11-01T10:08:53.732Z,14.50
2022-11-01T10:11:29.807Z,14.60
2022-11-01T10:14:30.361Z,14.70
2022-11-01T10:17:09.943Z,14.70
2022-11-01T10:19:37.967Z,14.80
2022-11-01T10:22:14.264Z,15.00
2022-11-01T10:25:04.458Z,15.10
2022-11-01T10:28:01.636Z,15.20
2022-11-01T10:30:36.487Z,15.30
2022-11-01T10:33:31.281Z,15.40
2022-11-01T10:36:05.416Z,15.50
2022-11-01T10:39:16.619Z,15.50
2022-11-01T10:41:40.993Z,15.50
2022-11-01T10:44:21.927Z,15.50
2022-11-01T10:46:51.239Z,15.50
2022-11-01T10:52:42.463Z,15.70
2022-11-01T10:55:14.073Z,15.80
2022-11-01T10:58:20.740Z,16.00
2022-11-01T11:00:48.381Z,16.10
2022-11-01T11:03:23.849Z,16.30
2022-11-01T11:05:52.244Z,16.50
2022-11-01T11:08:23.671Z,16.60
2022-11-01T11:10:51.061Z,16.70
2022-11-01T11:13:22.327Z,16.90
2022-11-01T11:15:53.266Z,17.10
2022-11-01T11:18:36.663Z,17.20
2022-11-01T11:21:08.682Z,17.30
2022-11-01T11:23:42.446Z,17.30
2022-11-01T11:26:16.799Z,17.40
2022-11-01T11:28:51.518Z,17.40
2022-11-01T11:31:31.337Z,17.50
2022-11-01T11:34:04.472Z,17.50
2022-11-01T11:36:38.094Z,17.50
2022-11-01T11:39:05.774Z,17.60
2022-11-01T11:41:36.179Z,17.60
2022-11-01T11:44:03.206Z,17.70
2022-11-01T11:46:30.113Z,17.60
2022-11-01T11:49:01.116Z,17.60
2022-11-01T11:51:29.784Z,17.70
2022-11-01T11:54:23.863Z,17.70
2022-11-01T11:56:53.056Z,17.80
2022-11-01T11:59:29.106Z,18.00
2022-11-01T12:02:20.901Z,18.10
2022-11-01T12:04:54.675Z,18.20
2022-11-01T12:07:39.949Z,18.40
2022-11-01T12:10:29.454Z,18.40
2022-11-01T12:12:59.592Z,18.50
2022-11-01T12:15:28.115Z,18.40
2022-11-01T12:17:55.852Z,18.40
2022-11-01T12:20:25.366Z,18.30
2022-11-01T12:23:10.673Z,18.30
2022-11-01T12:25:39.702Z,18.40
2022-11-01T12:28:41.615Z,18.30
2022-11-01T12:31:17.813Z,18.30
2022-11-01T12:33:58.241Z,18.20
2022-11-01T12:36:33.573Z,18.20
2022-11-01T12:39:20.354Z,18.10
2022-11-01T12:41:57.161Z,18.10
2022-11-01T12:44:41.255Z,17.90
2022-11-01T12:47:15.580Z,17.80
2022-11-01T12:49:48.006Z,17.70
2022-11-01T12:52:21.558Z,17.60
2022-11-01T12:55:21.003Z,17.60
2022-11-01T12:57:48.788Z,17.60
2022-11-01T13:00:27.005Z,17.50
2022-11-01T13:03:03.859Z,17.40
2022-11-01T13:06:06.226Z,17.30
2022-11-01T13:08:58.904Z,17.30
2022-11-01T13:11:29.068Z,17.30
2022-11-01T13:14:26.839Z,17.30
2022-11-01T13:17:08.132Z,17.20
2022-11-01T13:19:48.887Z,17.30
2022-11-01T13:22:37.383Z,17.30
2022-11-01T13:25:13.555Z,17.40
2022-11-01T13:27:59.538Z,17.40
2022-11-01T13:30:26.884Z,17.50
2022-11-01T13:33:05.008Z,17.60
2022-11-01T13:35:44.336Z,17.70
2022-11-01T13:38:33.454Z,17.70
2022-11-01T13:41:19.657Z,17.70
2022-11-01T13:44:14.296Z,17.60
2022-11-01T13:47:11.813Z,17.60
2022-11-01T13:49:53.139Z,17.50
2022-11-01T13:52:26.877Z,17.50
2022-11-01T13:55:08.032Z,17.40
2022-11-01T13:57:35.072Z,17.40
2022-11-01T14:00:09.601Z,17.40
2022-11-01T14:02:59.065Z,17.40
2022-11-01T14:05:38.955Z,17.40
2022-11-01T14:08:11.747Z,17.40
2022-11-01T14:10:38.459Z,17.30
2022-11-01T14:13:07.890Z,17.30
2022-11-01T14:15:39.408Z,17.30
2022-11-01T14:18:09.696Z,17.30
2022-11-01T14:20:41.040Z,17.30
2022-11-01T14:23:42.688Z,17.30
2022-11-01T14:26:18.604Z,17.30
2022-11-01T14:28:47.111Z,17.30
2022-11-01T14:31:15.600Z,17.30
2022-11-01T14:33:43.799Z,17.30
2022-11-01T14:36:12.955Z,17.20
2022-11-01T14:38:51.707Z,17.20
2022-11-01T14:41:20.320Z,17.10
2022-11-01T14:43:50.367Z,17.10
2022-11-01T14:46:18.527Z,17.10
2022-11-01T14:48:57.547Z,17.10
2022-11-01T14:51:28.478Z,17.10
2022-11-01T14:54:35.936Z,17.00
2022-11-01T14:57:02.843Z,17.00
2022-11-01T14:59:32.074Z,17.00
2022-11-01T15:02:05.285Z,16.90
2022-11-01T15:04:38.981Z,16.80
2022-11-01T15:07:27.850Z,16.80
2022-11-01T15:10:02.704Z,16.70
2022-11-01T15:12:36.819Z,16.60
2022-11-01T15:15:04.395Z,16.60
2022-11-01T15:17:34.217Z,16.50
2022-11-01T15:20:08.838Z,16.40
2022-11-01T15:22:35.564Z,16.30
2022-11-01T15:25:05.315Z,16.30
2022-11-01T15:27:43.414Z,16.20
2022-11-01T15:30:36.713Z,16.10
2022-11-01T15:33:20.373Z,16.10
2022-11-01T15:35:59.465Z,16.00
2022-11-01T15:38:27.683Z,16.00
2022-11-01T15:40:54.507Z,15.90
2022-11-01T15:43:29.071Z,16.00
2022-11-01T15:46:22.609Z,16.00
2022-11-01T15:48:52.403Z,15.80
2022-11-01T15:51:25.549Z,15.70
2022-11-01T15:54:04.237Z,15.50
2022-11-01T15:56:40.916Z,15.40
2022-11-01T15:59:36.036Z,15.20
2022-11-01T16:02:08.142Z,15.10
2022-11-01T16:04:44.330Z,15.00
2022-11-01T16:07:15.346Z,14.90
2022-11-01T16:09:53.548Z,15.00
2022-11-01T16:12:23.675Z,14.90
2022-11-01T16:14:59.780Z,14.80
2022-11-01T16:17:39.507Z,14.80
2022-11-01T16:20:25.185Z,14.80
2022-11-01T16:22:52.185Z,14.80
2022-11-01T16:25:24.094Z,14.80
2022-11-01T16:27:53.947Z,14.80
2022-11-01T16:30:37.893Z,14.80
2022-11-01T16:33:35.619Z,14.80
2022-11-01T16:36:20.744Z,14.70
2022-11-01T16:38:52.660Z,14.70
2022-11-01T16:41:40.743Z,14.80
2022-11-01T16:44:15.739Z,14.80
2022-11-01T16:46:42.653Z,14.80
2022-11-01T16:49:15.233Z,14.80
2022-11-01T16:51:42.324Z,14.80
2022-11-01T16:54:10.342Z,14.90
2022-11-01T16:56:41.813Z,14.80
2022-11-01T16:59:23.560Z,14.80
2022-11-01T17:01:51.693Z,14.80
2022-11-01T17:04:19.294Z,14.70
2022-11-01T17:06:46.127Z,14.60
2022-11-01T17:09:15.082Z,14.60
2022-11-01T17:11:48.015Z,14.50
2022-11-01T17:14:18.340Z,14.40
2022-11-01T17:16:47.197Z,14.50
2022-11-01T17:19:31.097Z,14.40
2022-11-01T17:22:00.939Z,14.40
2022-11-01T17:24:27.750Z,14.40
2022-11-01T17:26:56.488Z,14.30
2022-11-01T17:29:23.287Z,14.20
2022-11-01T17:31:50.036Z,14.10
2022-11-01T17:34:16.735Z,14.00
2022-11-01T17:36:47.733Z,13.90
2022-11-01T17:39:14.813Z,13.80
2022-11-01T17:41:41.476Z,13.80
2022-11-01T17:44:11.410Z,13.80
2022-11-01T17:46:38.262Z,13.80
2022-11-01T17:49:05.432Z,13.90
2022-11-01T17:51:32.308Z,13.90
2022-11-01T17:53:59.507Z,13.80
2022-11-01T17:56:26.211Z,13.90
2022-11-01T17:58:53.720Z,13.90
2022-11-01T18:01:21.265Z,14.00
2022-11-01T18:03:48.816Z,14.00
2022-11-01T18:06:15.911Z,14.00
2022-11-01T18:08:48.512Z,14.00
2022-11-01T18:11:41.819Z,13.90
2022-11-01T18:14:41.882Z,13.90
2022-11-01T18:17:30.553Z,13.90
2022-11-01T18:20:06.818Z,13.90
2022-11-01T18:22:57.647Z,13.90
2022-11-01T18:25:40.229Z,13.90
2022-11-01T18:28:27.839Z,13.90
2022-11-01T18:30:57.543Z,13.90
2022-11-01T18:33:42.445Z,13.90
2022-11-01T18:36:32.503Z,13.90
2022-11-01T18:39:27.120Z,13.90
2022-11-01T18:41:54.002Z,14.00
2022-11-01T18:44:20.689Z,14.00
2022-11-01T18:46:56.864Z,14.10
2022-11-01T18:49:27.201Z,14.00
2022-11-01T18:51:55.234Z,14.00
2022-11-01T18:54:26.857Z,13.90
2022-11-01T18:56:58.803Z,14.00
2022-11-01T18:59:32.862Z,14.00
2022-11-01T19:02:11.536Z,14.10
2022-11-01T19:04:40.990Z,14.10
2022-11-01T19:07:22.558Z,14.20
2022-11-01T19:09:58.480Z,14.20
2022-11-01T19:12:32.100Z,14.10
2022-11-01T19:15:03.621Z,14.00
2022-11-01T19:17:37.402Z,14.00
2022-11-01T19:20:19.562Z,14.00
2022-11-01T19:22:46.411Z,14.00
2022-11-01T19:25:18.482Z,13.90
2022-11-01T19:27:47.495Z,13.90
2022-11-01T19:30:24.944Z,13.80
2022-11-01T19:32:54.069Z,13.80
2022-11-01T19:35:22.559Z,13.70
2022-11-01T19:37:52.067Z,13.70
2022-11-01T19:40:28.029Z,13.70
2022-11-01T19:42:57.396Z,13.80
2022-11-01T19:45:32.945Z,13.80
2022-11-01T19:48:01.737Z,13.70
2022-11-01T19:50:39.741Z,13.70
2022-11-01T19:53:19.320Z,13.70
2022-11-01T19:56:05.091Z,13.70
2022-11-01T19:58:39.208Z,13.70
2022-11-01T20:01:08.694Z,13.80
2022-11-01T20:03:41.021Z,13.80
2022-11-01T20:06:21.511Z,13.80
2022-11-01T20:08:57.041Z,13.80
2022-11-01T20:11:23.793Z,13.90
2022-11-01T20:13:50.488Z,13.70
2022-11-01T20:16:17.222Z,13.80
2022-11-01T20:18:43.917Z,13.70
2022-11-01T20:21:10.604Z,13.60
2022-11-01T20:23:38.841Z,13.50
2022-11-01T20:26:05.683Z,13.50
2022-11-01T20:28:32.695Z,13.40
2022-11-01T20:30:59.483Z,13.40
2022-11-01T20:33:27.006Z,13.40
2022-11-01T20:35:53.760Z,13.40
2022-11-01T20:40:52.178Z,13.30
2022-11-01T20:43:19.410Z,13.20
2022-11-01T20:45:46.053Z,13.10
2022-11-01T20:48:12.713Z,13.10
2022-11-01T20:50:39.489Z,13.00
2022-11-01T20:53:06.708Z,13.00
2022-11-01T20:55:33.850Z,13.00
2022-11-01T20:58:00.978Z,13.00
2022-11-01T21:00:28.095Z,13.00
2022-11-01T21:02:58.078Z,13.00
2022-11-01T21:05:29.812Z,13.00
2022-11-01T21:08:22.379Z,12.90
2022-11-01T21:10:59.395Z,12.90
2022-11-01T21:13:32.087Z,12.90
2022-11-01T21:16:00.994Z,12.90
2022-11-01T21:18:30.688Z,12.90
2022-11-01T21:20:59.011Z,12.80
2022-11-01T21:23:37.511Z,12.70
2022-11-01T21:26:18.900Z,12.70
2022-11-01T21:28:52.036Z,12.70
2022-11-01T21:31:30.233Z,12.60
2022-11-01T21:34:00.880Z,12.70
2022-11-01T21:36:35.616Z,12.70
2022-11-01T21:39:10.084Z,12.60
2022-11-01T21:41:44.119Z,12.70
2022-11-01T21:44:29.632Z,12.70
2022-11-01T21:47:31.168Z,12.70
2022-11-01T21:49:58.383Z,12.70
2022-11-01T21:52:25.372Z,12.70
2022-11-01T21:54:53.108Z,12.70
2022-11-01T21:57:19.968Z,12.70
2022-11-01T21:59:46.776Z,12.60
2022-11-01T22:02:14.874Z,12.60
2022-11-01T22:04:42.174Z,12.60
2022-11-01T22:07:10.131Z,12.60
2022-11-01T22:09:37.759Z,12.60
2022-11-01T22:12:05.212Z,12.70
2022-11-01T22:14:32.071Z,12.70
2022-11-01T22:17:00.227Z,12.70
2022-11-01T22:19:27.218Z,12.70
2022-11-01T22:21:53.903Z,12.80
2022-11-01T22:24:20.615Z,12.80
2022-11-01T22:26:47.348Z,12.80
2022-11-01T22:29:14.026Z,12.80
2022-11-01T22:31:40.748Z,12.70
2022-11-01T22:34:07.818Z,12.60
2022-11-01T22:36:36.462Z,12.50
2022-11-01T22:39:18.521Z,12.40
2022-11-01T22:41:45.314Z,12.40
2022-11-01T22:44:14.660Z,12.40
2022-11-01T22:46:58.001Z,12.30
2022-11-01T22:49:32.670Z,12.30
2022-11-01T22:52:05.435Z,12.30
2022-11-01T22:54:43.720Z,12.30
2022-11-01T22:57:14.304Z,12.20
2022-11-01T22:59:57.628Z,12.20
2022-11-01T23:02:37.497Z,12.20
2022-11-01T23:05:07.070Z,12.20
2022-11-01T23:07:42.522Z,12.20
2022-11-01T23:10:32.168Z,12.10
2022-11-01T23:13:37.432Z,12.10
2022-11-01T23:16:31.218Z,12.10
2022-11-01T23:19:01.223Z,12.00
2022-11-01T23:21:28.278Z,11.90
2022-11-01T23:23:55.585Z,11.90
2022-11-01T23:26:22.848Z,11.90
2022-11-01T23:28:55.184Z,12.00
2022-11-01T23:31:24.221Z,11.90
2022-11-01T23:33:51.525Z,12.00
2022-11-01T23:36:35.328Z,12.00
2022-11-01T23:39:04.870Z,12.00
2022-11-01T23:41:42.119Z,11.90
2022-11-01T23:44:32.040Z,11.90
2022-11-01T23:47:21.331Z,11.90
2022-11-01T23:49:56.891Z,12.00
2022-11-01T23:52:41.571Z,12.10
2022-11-01T23:55:37.916Z,12.10
2022-11-01T23:58:12.451Z,12.10
